x

Mount Louis (45138) Wave Buoy

6:00am - Thu 28th Jul 2016 All times are UTC.

  • Sig Wave height 1.3ft
  • Peak Period 4s
  • Wind
    4mph, 7mph gusts
  • Sea Temp 53°f
  • Air Temp 55°f
  • Sea Pressure 1008.3mb

More Historic Weather Station data

Upgrade to MSW Pro to gain access to the past 30 days of data for over 8000 Wavebouys and Weather Stations around the globe.

Join Pro

Comparision Forecast

View Surf forecast
   
Thu 07/28 6:00am 1.3ft 4s 4 7 mph 1008.3mb 53f 55f
5:00am 1ft 4s 4 7 mph 1008.1mb 53f 55f
4:00am 1ft 4s 7 9 mph 1008.5mb 54f 55f
3:00am 1ft 3s 7 9 mph 1008.6mb 53f 56f
2:00am 1ft 3s 9
mph
1009mb 54f 55f
1:00am 1ft 5s 11 13 mph 1009mb 55f 55f
12:00am  -   -  13
mph
- - -
Wed 07/27 11:00pm 0.7ft 6s 11 13 mph 1008.9mb 59f 57f
10:00pm 0.7ft 6s 7
mph
1008.8mb 60f 57f
9:00pm 0.7ft 6s 9 11 mph 1009.5mb 60f 57f
8:00pm  -   -  9
mph
- - -
7:00pm 1ft 6s 2 4 mph 1010.4mb 59f 58f
6:00pm 1ft 5s  -  mph 1010.6mb 59f 58f
5:00pm 1ft 5s  -  mph 1010.4mb 59f 59f
4:00pm 1ft 5s  -  mph 1010.4mb 58f 58f
3:00pm 1ft 4s  -  mph 1010.3mb 58f 55f
2:00pm 1ft 4s  -  mph 1010mb 56f 56f
1:00pm 1.3ft 4s  -  mph 1009.9mb 56f 55f
12:00pm 1.3ft 5s  -  mph 1009.7mb 56f 55f
11:00am 1.3ft 5s  -  mph 1009.6mb 57f 55f
10:00am 1.6ft 5s  -  mph 1009.2mb 57f 58f
9:00am 2ft 5s  -  mph 1009mb 57f 57f
8:00am 2ft 5s  -  mph 1008.8mb 57f 58f
7:00am 2.5ft 6s  -  mph 1008.7mb 57f 58f
6:00am 2.5ft 6s  -  mph 1008.6mb 58f 57f
5:00am 2.5ft 5s  -  mph 1008.6mb 57f 57f
4:00am 2.5ft 6s  -  mph 1008.6mb 57f 57f
3:00am 3ft 6s  -  mph 1008.3mb 57f 57f
2:00am 3ft 6s  -  mph 1007.9mb 57f 57f
1:00am 3ft 6s  -  mph 1007.8mb 57f 57f
12:00am 3ft 6s  -  mph 1007.3mb 56f 57f
Tue 07/26 11:00pm 2.5ft 5s  -  mph 1007mb 56f 57f
10:00pm 3ft 5s  -  mph 1006.8mb 56f 57f
9:00pm  -   -   -  mph 1006.6mb 55f 57f
8:00pm 3.5ft 5s  -  mph 1006mb 55f 58f
7:00pm 3.5ft 5s  -  mph 1005.6mb 56f 58f
6:00pm 3.5ft 6s  -  mph 1005.4mb 56f 58f
5:00pm 4.5ft 5s  -  mph 1005mb 57f 58f
4:00pm 3.5ft 5s  -  mph 1005.1mb - 58f
3:00pm 3.5ft 5s  -  mph 1005.1mb 56f 58f
2:00pm  -   -   -  mph - - 58f
1:00pm 2ft 5s  -  mph 1005.2mb 57f 58f
12:00pm 2ft 6s  -  mph 1005.7mb 58f 59f
11:00am 1.3ft 5s  -  mph 1006.4mb 59f 59f
10:00am 1ft 5s  -  mph 1006.6mb 59f 60f
9:00am 1ft 5s  -  mph 1006.4mb 59f 60f
8:00am 1.3ft 5s  -  mph 1006.9mb 59f 60f
7:00am 1ft 5s  -  mph 1007.7mb 59f 59f
6:00am 1ft 4s  -  mph 1007.2mb 59f 59f
5:00am 1ft 3s  -  mph 1007.2mb 59f 60f
4:00am 0.7ft 4s  -  mph 1007.3mb 59f 60f
3:00am 0.7ft 7s  -  mph 1008.1mb 59f 60f
2:00am 0.7ft 4s  -  mph 1008.4mb 59f 60f
1:00am 0.7ft 4s  -  mph 1008.7mb 59f 60f
12:00am 0.7ft 4s  -  mph 1009.2mb 59f 60f
Mon 07/25 11:00pm 1ft 4s  -  mph 1009.8mb 60f 60f
10:00pm 1ft 4s  -  mph 1009.8mb 59f 60f
9:00pm 1ft 5s  -  mph 1010.4mb 60f 62f
8:00pm 1ft 4s  -  mph 1010.8mb 60f 62f
7:00pm 1ft 4s  -  mph 1011.3mb 60f 63f
6:00pm 0.3ft 5s  -  mph 1011.4mb 61f 63f
5:00pm 0.3ft 2s  -  mph 1011.9mb 62f 69f
4:00pm 0.3ft 5s  -  mph 1012.4mb 60f 65f
3:00pm 0.7ft 6s  -  mph 1012.6mb 60f 64f
2:00pm 0.7ft 2s  -  mph 1012.6mb 59f 68f
1:00pm 0.7ft 5s  -  mph 1012.7mb 58f 63f
12:00pm 0.7ft 3s  -  mph 1012.3mb 57f 64f
11:00am 1ft 4s  -  mph 1011.8mb 56f 60f
10:00am 1.3ft 4s  -  mph 1011.6mb 56f 60f
9:00am 1.6ft 4s  -  mph 1011.2mb 57f 60f
8:00am 2ft 4s  -  mph 1011.2mb 57f 61f
7:00am 2ft 4s  -  mph 1011.2mb 57f 61f
6:00am 2.5ft 4s  -  mph 1011mb 57f 62f
5:00am 2ft 3s  -  mph 1010.9mb 58f 63f
4:00am 2.5ft 4s  -  mph 1011.1mb 58f 63f
3:00am 2ft 3s  -  mph 1011.2mb 58f 64f
2:00am 1.6ft 3s  -  mph 1011.2mb 58f 63f
1:00am 1.6ft 3s  -  mph 1011.1mb 58f 63f
12:00am  -   -   -  mph 1010.9mb - 62f
Sun 07/24 11:00pm 1.3ft 3s  -  mph 1010.9mb 58f 62f
10:00pm 1ft 2s  -  mph 1011mb 58f 62f
9:00pm 1.3ft 3s  -  mph 1010.9mb 58f 63f
8:00pm 1.3ft 4s  -  mph 1010.7mb 58f 63f
7:00pm 1.6ft 4s  -  mph 1010.6mb 58f 62f
6:00pm 1.3ft 4s  -  mph 1010.5mb 57f 61f
5:00pm 1.6ft 4s  -  mph 1010.5mb 57f 61f
4:00pm 1.6ft 4s  -  mph 1010.7mb 57f 61f
3:00pm 1.6ft 4s  -  mph 1010.5mb 57f 61f
2:00pm 2ft 4s  -  mph 1010.3mb 56f 60f
1:00pm 1.6ft 4s  -  mph 1009.8mb 56f 61f
12:00pm 1.6ft 4s  -  mph 1009.2mb 56f 61f
11:00am 1.6ft 4s  -  mph 1008.5mb 56f 59f
10:00am 1.6ft 3s  -  mph 1008mb 56f 58f
9:00am 1.6ft 7s  -  mph 1007.6mb 57f 59f
8:00am 1.6ft 4s  -  mph 1007.2mb 57f 61f